sensor_id;sensor_type;location;lat;lon;timestamp;temperature;humidity
31038;DHT22;17702;47.590;7.666;2024-01-15T00:00:38;4.00;99.90
31038;DHT22;17702;47.590;7.666;2024-01-15T00:03:04;4.10;99.90
31038;DHT22;17702;47.590;7.666;2024-01-15T00:05:30;4.10;99.90
31038;DHT22;17702;47.590;7.666;2024-01-15T00:07:55;4.10;99.90
31038;DHT22;17702;47.590;7.666;2024-01-15T00:10:21;4.10;99.90
31038;DHT22;17702;47.590;7.666;2024-01-15T00:12:46;4.10;99.90
31038;DHT22;17702;47.590;7.666;2024-01-15T00:15:12;4.10;99.90
31038;DHT22;17702;47.590;7.666;2024-01-15T00:17:38;4.10;99.90
31038;DHT22;17702;47.590;7.666;2024-01-15T00:20:04;4.00;99.90
31038;DHT22;17702;47.590;7.666;2024-01-15T00:22:30;3.90;99.90
31038;DHT22;17702;47.590;7.666;2024-01-15T00:24:56;3.90;99.90
31038;DHT22;17702;47.590;7.666;2024-01-15T00:27:22;3.90;99.90
31038;DHT22;17702;47.590;7.666;2024-01-15T00:29:47;3.90;99.90
31038;DHT22;17702;47.590;7.666;2024-01-15T00:32:13;3.90;99.90
31038;DHT22;17702;47.590;7.666;2024-01-15T00:34:39;3.80;99.90
31038;DHT22;17702;47.590;7.666;2024-01-15T00:37:04;3.80;99.90
31038;DHT22;17702;47.590;7.666;2024-01-15T00:39:32;3.70;99.90
31038;DHT22;17702;47.590;7.666;2024-01-15T00:41:58;3.70;99.90
31038;DHT22;17702;47.590;7.666;2024-01-15T00:44:23;3.60;99.90
31038;DHT22;17702;47.590;7.666;2024-01-15T00:46:49;3.60;99.90
31038;DHT22;17702;47.590;7.666;2024-01-15T00:49:15;3.60;99.90
31038;DHT22;17702;47.590;7.666;2024-01-15T00:51:41;3.50;99.90
31038;DHT22;17702;47.590;7.666;2024-01-15T00:54:07;3.50;99.90
31038;DHT22;17702;47.590;7.666;2024-01-15T00:56:32;3.50;99.90
31038;DHT22;17702;47.590;7.666;2024-01-15T00:58:58;3.50;99.90
31038;DHT22;17702;47.590;7.666;2024-01-15T01:01:24;3.30;99.90
31038;DHT22;17702;47.590;7.666;2024-01-15T01:03:49;3.30;99.90
31038;DHT22;17702;47.590;7.666;2024-01-15T01:06:15;3.40;99.90
31038;DHT22;17702;47.590;7.666;2024-01-15T01:08:40;3.50;99.90
31038;DHT22;17702;47.590;7.666;2024-01-15T01:11:06;3.60;99.90
31038;DHT22;17702;47.590;7.666;2024-01-15T01:13:32;3.70;99.90
31038;DHT22;17702;47.590;7.666;2024-01-15T01:15:58;3.60;99.90
31038;DHT22;17702;47.590;7.666;2024-01-15T01:18:24;3.70;99.90
31038;DHT22;17702;47.590;7.666;2024-01-15T01:20:49;3.70;99.90
31038;DHT22;17702;47.590;7.666;2024-01-15T01:23:15;3.60;99.90
31038;DHT22;17702;47.590;7.666;2024-01-15T01:25:40;3.60;99.90
31038;DHT22;17702;47.590;7.666;2024-01-15T01:28:06;3.60;99.90
31038;DHT22;17702;47.590;7.666;2024-01-15T01:30:32;3.60;99.90
31038;DHT22;17702;47.590;7.666;2024-01-15T01:32:57;3.60;99.90
31038;DHT22;17702;47.590;7.666;2024-01-15T01:35:23;3.60;99.90
31038;DHT22;17702;47.590;7.666;2024-01-15T01:37:48;3.60;99.90
31038;DHT22;17702;47.590;7.666;2024-01-15T01:40:14;3.50;99.90
31038;DHT22;17702;47.590;7.666;2024-01-15T01:42:39;3.50;99.90
31038;DHT22;17702;47.590;7.666;2024-01-15T01:45:05;3.60;99.90
31038;DHT22;17702;47.590;7.666;2024-01-15T01:47:32;3.50;99.90
31038;DHT22;17702;47.590;7.666;2024-01-15T01:49:57;3.50;99.90
31038;DHT22;17702;47.590;7.666;2024-01-15T01:52:23;3.50;99.90
31038;DHT22;17702;47.590;7.666;2024-01-15T01:54:49;3.40;99.90
31038;DHT22;17702;47.590;7.666;2024-01-15T01:57:16;3.40;99.90
31038;DHT22;17702;47.590;7.666;2024-01-15T01:59:43;3.30;99.90
31038;DHT22;17702;47.590;7.666;2024-01-15T02:02:09;3.30;99.90
31038;DHT22;17702;47.590;7.666;2024-01-15T02:04:35;3.20;99.90
31038;DHT22;17702;47.590;7.666;2024-01-15T02:07:02;3.10;99.90
31038;DHT22;17702;47.590;7.666;2024-01-15T02:09:28;3.00;99.90
31038;DHT22;17702;47.590;7.666;2024-01-15T02:11:53;2.90;99.90
31038;DHT22;17702;47.590;7.666;2024-01-15T02:14:19;2.90;99.90
31038;DHT22;17702;47.590;7.666;2024-01-15T02:16:45;2.80;99.90
31038;DHT22;17702;47.590;7.666;2024-01-15T02:19:17;2.70;99.90
31038;DHT22;17702;47.590;7.666;2024-01-15T02:21:43;2.70;99.90
31038;DHT22;17702;47.590;7.666;2024-01-15T02:24:09;2.60;99.90
31038;DHT22;17702;47.590;7.666;2024-01-15T02:26:34;2.50;99.90
31038;DHT22;17702;47.590;7.666;2024-01-15T02:29:01;2.30;99.90
31038;DHT22;17702;47.590;7.666;2024-01-15T02:31:27;2.20;99.90
31038;DHT22;17702;47.590;7.666;2024-01-15T02:33:53;2.20;99.90
31038;DHT22;17702;47.590;7.666;2024-01-15T02:36:18;2.10;99.90
31038;DHT22;17702;47.590;7.666;2024-01-15T02:38:44;2.10;99.90
31038;DHT22;17702;47.590;7.666;2024-01-15T02:41:09;2.00;99.90
31038;DHT22;17702;47.590;7.666;2024-01-15T02:43:35;2.10;99.90
31038;DHT22;17702;47.590;7.666;2024-01-15T02:46:00;2.10;99.90
31038;DHT22;17702;47.590;7.666;2024-01-15T02:48:26;2.00;99.90
31038;DHT22;17702;47.590;7.666;2024-01-15T02:50:51;2.00;99.90
31038;DHT22;17702;47.590;7.666;2024-01-15T02:53:17;1.90;99.90
31038;DHT22;17702;47.590;7.666;2024-01-15T02:55:42;1.90;99.90
31038;DHT22;17702;47.590;7.666;2024-01-15T02:58:08;1.90;99.90
31038;DHT22;17702;47.590;7.666;2024-01-15T03:00:34;1.90;99.90
31038;DHT22;17702;47.590;7.666;2024-01-15T03:02:59;1.90;99.90
31038;DHT22;17702;47.590;7.666;2024-01-15T03:05:25;2.00;99.90
31038;DHT22;17702;47.590;7.666;2024-01-15T03:07:50;2.00;99.90
31038;DHT22;17702;47.590;7.666;2024-01-15T03:10:16;2.00;99.90
31038;DHT22;17702;47.590;7.666;2024-01-15T03:12:42;2.10;99.90
31038;DHT22;17702;47.590;7.666;2024-01-15T03:15:07;2.20;99.90
31038;DHT22;17702;47.590;7.666;2024-01-15T03:17:33;2.30;99.90
31038;DHT22;17702;47.590;7.666;2024-01-15T03:19:59;2.30;99.90
31038;DHT22;17702;47.590;7.666;2024-01-15T03:22:24;2.40;99.90
31038;DHT22;17702;47.590;7.666;2024-01-15T03:24:50;2.40;99.90
31038;DHT22;17702;47.590;7.666;2024-01-15T03:27:15;2.50;99.90
31038;DHT22;17702;47.590;7.666;2024-01-15T03:29:41;2.50;99.90
31038;DHT22;17702;47.590;7.666;2024-01-15T03:32:07;2.60;99.90
31038;DHT22;17702;47.590;7.666;2024-01-15T03:34:32;2.70;99.90
31038;DHT22;17702;47.590;7.666;2024-01-15T03:36:58;2.70;99.90
31038;DHT22;17702;47.590;7.666;2024-01-15T03:39:24;2.80;99.90
31038;DHT22;17702;47.590;7.666;2024-01-15T03:41:50;2.80;99.90
31038;DHT22;17702;47.590;7.666;2024-01-15T03:44:15;2.80;99.90
31038;DHT22;17702;47.590;7.666;2024-01-15T03:46:41;2.80;99.90
31038;DHT22;17702;47.590;7.666;2024-01-15T03:49:07;2.70;99.90
31038;DHT22;17702;47.590;7.666;2024-01-15T03:51:32;2.70;99.90
31038;DHT22;17702;47.590;7.666;2024-01-15T03:53:58;2.70;99.90
31038;DHT22;17702;47.590;7.666;2024-01-15T03:56:23;2.70;99.90
31038;DHT22;17702;47.590;7.666;2024-01-15T03:58:49;2.70;99.90
31038;DHT22;17702;47.590;7.666;2024-01-15T04:01:14;2.80;99.90
31038;DHT22;17702;47.590;7.666;2024-01-15T04:03:40;2.80;99.90
31038;DHT22;17702;47.590;7.666;2024-01-15T04:06:05;2.80;99.90
31038;DHT22;17702;47.590;7.666;2024-01-15T04:08:31;2.80;99.90
31038;DHT22;17702;47.590;7.666;2024-01-15T04:10:57;2.80;99.90
31038;DHT22;17702;47.590;7.666;2024-01-15T04:13:22;2.80;99.90
31038;DHT22;17702;47.590;7.666;2024-01-15T04:15:48;2.80;99.90
31038;DHT22;17702;47.590;7.666;2024-01-15T04:18:16;2.80;99.90
31038;DHT22;17702;47.590;7.666;2024-01-15T04:20:41;2.80;99.90
31038;DHT22;17702;47.590;7.666;2024-01-15T04:23:07;2.80;99.90
31038;DHT22;17702;47.590;7.666;2024-01-15T04:25:33;2.90;99.90
31038;DHT22;17702;47.590;7.666;2024-01-15T04:27:58;2.90;99.90
31038;DHT22;17702;47.590;7.666;2024-01-15T04:30:24;2.90;99.90
31038;DHT22;17702;47.590;7.666;2024-01-15T04:32:50;2.90;99.90
31038;DHT22;17702;47.590;7.666;2024-01-15T04:35:15;2.90;99.90
31038;DHT22;17702;47.590;7.666;2024-01-15T04:37:41;2.90;99.90
31038;DHT22;17702;47.590;7.666;2024-01-15T04:40:07;2.90;99.90
31038;DHT22;17702;47.590;7.666;2024-01-15T04:42:32;2.90;99.90
31038;DHT22;17702;47.590;7.666;2024-01-15T04:44:58;3.00;99.90
31038;DHT22;17702;47.590;7.666;2024-01-15T04:47:24;3.00;99.90
31038;DHT22;17702;47.590;7.666;2024-01-15T04:49:50;3.00;99.90
31038;DHT22;17702;47.590;7.666;2024-01-15T04:52:16;3.10;99.90
31038;DHT22;17702;47.590;7.666;2024-01-15T04:54:42;3.10;99.90
31038;DHT22;17702;47.590;7.666;2024-01-15T04:57:07;3.20;99.90
31038;DHT22;17702;47.590;7.666;2024-01-15T04:59:33;3.20;99.90
31038;DHT22;17702;47.590;7.666;2024-01-15T05:01:58;3.30;99.90
31038;DHT22;17702;47.590;7.666;2024-01-15T05:04:24;3.20;99.90
31038;DHT22;17702;47.590;7.666;2024-01-15T05:06:53;3.30;99.90
31038;DHT22;17702;47.590;7.666;2024-01-15T05:09:18;3.30;99.90
31038;DHT22;17702;47.590;7.666;2024-01-15T05:11:44;3.30;99.90
31038;DHT22;17702;47.590;7.666;2024-01-15T05:14:10;3.20;99.90
31038;DHT22;17702;47.590;7.666;2024-01-15T05:16:38;3.20;99.90
31038;DHT22;17702;47.590;7.666;2024-01-15T05:19:04;3.30;99.90
31038;DHT22;17702;47.590;7.666;2024-01-15T05:21:29;3.30;99.90
31038;DHT22;17702;47.590;7.666;2024-01-15T05:23:55;3.30;99.90
31038;DHT22;17702;47.590;7.666;2024-01-15T05:26:20;3.30;99.90
31038;DHT22;17702;47.590;7.666;2024-01-15T05:28:46;3.30;99.90
31038;DHT22;17702;47.590;7.666;2024-01-15T05:31:12;3.30;99.90
31038;DHT22;17702;47.590;7.666;2024-01-15T05:33:37;3.30;99.90
31038;DHT22;17702;47.590;7.666;2024-01-15T05:36:03;3.30;99.90
31038;DHT22;17702;47.590;7.666;2024-01-15T05:38:29;3.30;99.90
31038;DHT22;17702;47.590;7.666;2024-01-15T05:40:54;3.40;99.90
31038;DHT22;17702;47.590;7.666;2024-01-15T05:43:20;3.30;99.90
31038;DHT22;17702;47.590;7.666;2024-01-15T05:45:45;3.30;99.90
31038;DHT22;17702;47.590;7.666;2024-01-15T05:48:11;3.30;99.90
31038;DHT22;17702;47.590;7.666;2024-01-15T05:50:37;3.30;99.90
31038;DHT22;17702;47.590;7.666;2024-01-15T05:53:03;3.30;99.90
31038;DHT22;17702;47.590;7.666;2024-01-15T05:55:29;3.30;99.90
31038;DHT22;17702;47.590;7.666;2024-01-15T05:57:55;3.30;99.90
31038;DHT22;17702;47.590;7.666;2024-01-15T06:00:20;3.30;99.90
31038;DHT22;17702;47.590;7.666;2024-01-15T06:02:46;3.30;99.90
31038;DHT22;17702;47.590;7.666;2024-01-15T06:05:11;3.30;99.90
31038;DHT22;17702;47.590;7.666;2024-01-15T06:07:37;3.40;99.90
31038;DHT22;17702;47.590;7.666;2024-01-15T06:10:03;3.40;99.90
31038;DHT22;17702;47.590;7.666;2024-01-15T06:12:30;3.40;99.90
31038;DHT22;17702;47.590;7.666;2024-01-15T06:14:56;3.40;99.90
31038;DHT22;17702;47.590;7.666;2024-01-15T06:17:22;3.40;99.90
31038;DHT22;17702;47.590;7.666;2024-01-15T06:19:47;3.30;99.90
31038;DHT22;17702;47.590;7.666;2024-01-15T06:22:13;3.40;99.90
31038;DHT22;17702;47.590;7.666;2024-01-15T06:24:38;3.50;99.90
31038;DHT22;17702;47.590;7.666;2024-01-15T06:27:04;3.50;99.90
31038;DHT22;17702;47.590;7.666;2024-01-15T06:29:30;3.60;99.90
31038;DHT22;17702;47.590;7.666;2024-01-15T06:31:55;3.60;99.90
31038;DHT22;17702;47.590;7.666;2024-01-15T06:34:21;3.60;99.90
31038;DHT22;17702;47.590;7.666;2024-01-15T06:36:46;3.60;99.90
31038;DHT22;17702;47.590;7.666;2024-01-15T06:39:12;3.60;99.90
31038;DHT22;17702;47.590;7.666;2024-01-15T06:41:38;3.60;99.90
31038;DHT22;17702;47.590;7.666;2024-01-15T06:44:10;3.60;99.70
31038;DHT22;17702;47.590;7.666;2024-01-15T06:46:36;3.60;99.90
31038;DHT22;17702;47.590;7.666;2024-01-15T06:49:02;3.60;99.90
31038;DHT22;17702;47.590;7.666;2024-01-15T06:51:28;3.60;99.90
31038;DHT22;17702;47.590;7.666;2024-01-15T06:53:54;3.70;99.40
31038;DHT22;17702;47.590;7.666;2024-01-15T06:56:19;3.70;99.90
31038;DHT22;17702;47.590;7.666;2024-01-15T06:58:45;3.70;99.90
31038;DHT22;17702;47.590;7.666;2024-01-15T07:01:11;3.70;99.90
31038;DHT22;17702;47.590;7.666;2024-01-15T07:03:37;3.70;99.90
31038;DHT22;17702;47.590;7.666;2024-01-15T07:06:03;3.70;99.90
31038;DHT22;17702;47.590;7.666;2024-01-15T07:08:29;3.70;99.90
31038;DHT22;17702;47.590;7.666;2024-01-15T07:10:55;3.80;99.90
31038;DHT22;17702;47.590;7.666;2024-01-15T07:13:20;3.70;99.90
31038;DHT22;17702;47.590;7.666;2024-01-15T07:15:46;3.80;99.90
31038;DHT22;17702;47.590;7.666;2024-01-15T07:18:11;3.80;99.90
31038;DHT22;17702;47.590;7.666;2024-01-15T07:20:37;3.80;99.90
31038;DHT22;17702;47.590;7.666;2024-01-15T07:23:02;3.80;99.90
31038;DHT22;17702;47.590;7.666;2024-01-15T07:25:29;3.80;99.90
31038;DHT22;17702;47.590;7.666;2024-01-15T07:27:55;3.80;99.90
31038;DHT22;17702;47.590;7.666;2024-01-15T07:30:21;3.80;99.70
31038;DHT22;17702;47.590;7.666;2024-01-15T07:32:47;3.80;99.70
31038;DHT22;17702;47.590;7.666;2024-01-15T07:35:16;3.80;99.40
31038;DHT22;17702;47.590;7.666;2024-01-15T07:37:42;3.80;99.90
31038;DHT22;17702;47.590;7.666;2024-01-15T07:40:08;3.80;99.90
31038;DHT22;17702;47.590;7.666;2024-01-15T07:42:34;3.80;99.90
31038;DHT22;17702;47.590;7.666;2024-01-15T07:45:00;3.80;99.90
31038;DHT22;17702;47.590;7.666;2024-01-15T07:47:26;3.80;99.80
31038;DHT22;17702;47.590;7.666;2024-01-15T07:49:53;3.80;99.90
31038;DHT22;17702;47.590;7.666;2024-01-15T07:52:19;3.80;99.90
31038;DHT22;17702;47.590;7.666;2024-01-15T07:54:44;3.90;99.90
31038;DHT22;17702;47.590;7.666;2024-01-15T07:57:10;3.80;99.50
31038;DHT22;17702;47.590;7.666;2024-01-15T07:59:36;3.80;99.90
31038;DHT22;17702;47.590;7.666;2024-01-15T08:02:02;3.80;99.90
31038;DHT22;17702;47.590;7.666;2024-01-15T08:04:27;3.80;99.20
31038;DHT22;17702;47.590;7.666;2024-01-15T08:06:53;3.70;99.80
31038;DHT22;17702;47.590;7.666;2024-01-15T08:09:18;3.70;99.90
31038;DHT22;17702;47.590;7.666;2024-01-15T08:11:44;3.70;99.50
31038;DHT22;17702;47.590;7.666;2024-01-15T08:14:10;3.70;99.30
31038;DHT22;17702;47.590;7.666;2024-01-15T08:16:36;3.70;99.00
31038;DHT22;17702;47.590;7.666;2024-01-15T08:19:02;3.70;99.80
31038;DHT22;17702;47.590;7.666;2024-01-15T08:21:28;3.80;99.90
31038;DHT22;17702;47.590;7.666;2024-01-15T08:23:58;3.80;99.20
31038;DHT22;17702;47.590;7.666;2024-01-15T08:26:24;3.90;98.80
31038;DHT22;17702;47.590;7.666;2024-01-15T08:28:49;3.90;99.50
31038;DHT22;17702;47.590;7.666;2024-01-15T08:31:15;3.90;98.70
31038;DHT22;17702;47.590;7.666;2024-01-15T08:33:41;4.00;98.80
31038;DHT22;17702;47.590;7.666;2024-01-15T08:36:06;4.00;98.70
31038;DHT22;17702;47.590;7.666;2024-01-15T08:38:32;4.10;98.10
31038;DHT22;17702;47.590;7.666;2024-01-15T08:40:57;4.10;98.00
31038;DHT22;17702;47.590;7.666;2024-01-15T08:43:26;4.10;99.00
31038;DHT22;17702;47.590;7.666;2024-01-15T08:45:52;4.10;98.80
31038;DHT22;17702;47.590;7.666;2024-01-15T08:48:17;4.20;99.00
31038;DHT22;17702;47.590;7.666;2024-01-15T08:50:43;4.20;98.80
31038;DHT22;17702;47.590;7.666;2024-01-15T08:53:11;4.30;98.00
31038;DHT22;17702;47.590;7.666;2024-01-15T08:55:37;4.30;97.60
31038;DHT22;17702;47.590;7.666;2024-01-15T08:58:03;4.30;97.50
31038;DHT22;17702;47.590;7.666;2024-01-15T09:00:29;4.30;98.40
31038;DHT22;17702;47.590;7.666;2024-01-15T09:02:55;4.40;98.80
31038;DHT22;17702;47.590;7.666;2024-01-15T09:05:21;4.50;99.60
31038;DHT22;17702;47.590;7.666;2024-01-15T09:07:47;4.50;98.90
31038;DHT22;17702;47.590;7.666;2024-01-15T09:10:13;4.60;98.20
31038;DHT22;17702;47.590;7.666;2024-01-15T09:12:39;4.70;97.40
31038;DHT22;17702;47.590;7.666;2024-01-15T09:15:05;4.90;98.30
31038;DHT22;17702;47.590;7.666;2024-01-15T09:17:32;5.10;99.00
31038;DHT22;17702;47.590;7.666;2024-01-15T09:19:57;5.40;97.40
31038;DHT22;17702;47.590;7.666;2024-01-15T09:22:23;5.60;97.30
31038;DHT22;17702;47.590;7.666;2024-01-15T09:24:49;5.80;96.50
31038;DHT22;17702;47.590;7.666;2024-01-15T09:27:14;5.90;96.00
31038;DHT22;17702;47.590;7.666;2024-01-15T09:29:41;6.00;95.70
31038;DHT22;17702;47.590;7.666;2024-01-15T09:32:07;6.10;95.10
31038;DHT22;17702;47.590;7.666;2024-01-15T09:34:36;6.20;94.70
31038;DHT22;17702;47.590;7.666;2024-01-15T09:37:02;6.20;94.70
31038;DHT22;17702;47.590;7.666;2024-01-15T09:39:28;6.20;93.40
31038;DHT22;17702;47.590;7.666;2024-01-15T09:41:54;6.40;94.50
31038;DHT22;17702;47.590;7.666;2024-01-15T09:44:21;6.50;94.00
31038;DHT22;17702;47.590;7.666;2024-01-15T09:46:47;6.50;94.30
31038;DHT22;17702;47.590;7.666;2024-01-15T09:49:16;6.60;92.70
31038;DHT22;17702;47.590;7.666;2024-01-15T09:51:42;6.60;92.40
31038;DHT22;17702;47.590;7.666;2024-01-15T09:54:08;6.70;93.60
31038;DHT22;17702;47.590;7.666;2024-01-15T09:56:34;6.80;91.50
31038;DHT22;17702;47.590;7.666;2024-01-15T09:59:01;6.80;91.50
31038;DHT22;17702;47.590;7.666;2024-01-15T10:01:27;6.80;92.10
31038;DHT22;17702;47.590;7.666;2024-01-15T10:03:54;6.90;92.20
31038;DHT22;17702;47.590;7.666;2024-01-15T10:06:21;6.90;92.60
31038;DHT22;17702;47.590;7.666;2024-01-15T10:08:51;6.80;92.50
31038;DHT22;17702;47.590;7.666;2024-01-15T10:11:17;6.80;91.70
31038;DHT22;17702;47.590;7.666;2024-01-15T10:13:46;6.70;92.60
31038;DHT22;17702;47.590;7.666;2024-01-15T10:16:12;6.60;93.30
31038;DHT22;17702;47.590;7.666;2024-01-15T10:18:38;6.50;94.10
31038;DHT22;17702;47.590;7.666;2024-01-15T10:21:06;6.50;94.60
31038;DHT22;17702;47.590;7.666;2024-01-15T10:23:34;6.40;94.80
31038;DHT22;17702;47.590;7.666;2024-01-15T10:26:02;6.40;94.90
31038;DHT22;17702;47.590;7.666;2024-01-15T10:28:28;6.30;95.20
31038;DHT22;17702;47.590;7.666;2024-01-15T10:30:57;6.20;94.90
31038;DHT22;17702;47.590;7.666;2024-01-15T10:33:22;6.10;94.60
31038;DHT22;17702;47.590;7.666;2024-01-15T10:35:54;6.10;95.50
31038;DHT22;17702;47.590;7.666;2024-01-15T10:38:21;6.00;95.80
31038;DHT22;17702;47.590;7.666;2024-01-15T10:40:51;5.90;95.10
31038;DHT22;17702;47.590;7.666;2024-01-15T10:43:17;5.80;95.80
31038;DHT22;17702;47.590;7.666;2024-01-15T10:45:46;5.70;95.90
31038;DHT22;17702;47.590;7.666;2024-01-15T10:48:13;5.70;95.40
31038;DHT22;17702;47.590;7.666;2024-01-15T10:50:39;5.70;95.80
31038;DHT22;17702;47.590;7.666;2024-01-15T10:53:05;5.70;96.40
31038;DHT22;17702;47.590;7.666;2024-01-15T10:55:32;5.70;96.00
31038;DHT22;17702;47.590;7.666;2024-01-15T10:57:59;5.70;95.50
31038;DHT22;17702;47.590;7.666;2024-01-15T11:00:25;5.70;95.60
31038;DHT22;17702;47.590;7.666;2024-01-15T11:02:51;5.60;95.40
31038;DHT22;17702;47.590;7.666;2024-01-15T11:05:21;5.70;95.60
31038;DHT22;17702;47.590;7.666;2024-01-15T11:07:48;5.60;95.40
31038;DHT22;17702;47.590;7.666;2024-01-15T11:10:39;5.60;96.20
31038;DHT22;17702;47.590;7.666;2024-01-15T11:13:09;5.60;95.70
31038;DHT22;17702;47.590;7.666;2024-01-15T11:16:03;5.50;95.90
31038;DHT22;17702;47.590;7.666;2024-01-15T11:18:31;5.50;96.00
31038;DHT22;17702;47.590;7.666;2024-01-15T11:23:54;5.40;96.60
31038;DHT22;17702;47.590;7.666;2024-01-15T11:34:10;5.30;96.50
31038;DHT22;17702;47.590;7.666;2024-01-15T11:41:57;5.20;96.60
31038;DHT22;17702;47.590;7.666;2024-01-15T11:44:24;5.10;97.10
31038;DHT22;17702;47.590;7.666;2024-01-15T11:52:21;5.20;97.40
31038;DHT22;17702;47.590;7.666;2024-01-15T11:55:06;5.20;97.20
31038;DHT22;17702;47.590;7.666;2024-01-15T12:00:11;5.20;97.40
31038;DHT22;17702;47.590;7.666;2024-01-15T12:02:41;5.10;97.60
31038;DHT22;17702;47.590;7.666;2024-01-15T12:05:08;5.10;98.10
31038;DHT22;17702;47.590;7.666;2024-01-15T12:07:34;5.20;98.00
31038;DHT22;17702;47.590;7.666;2024-01-15T12:10:01;5.30;98.10
31038;DHT22;17702;47.590;7.666;2024-01-15T12:15:08;5.30;97.50
31038;DHT22;17702;47.590;7.666;2024-01-15T12:17:35;5.20;97.50
31038;DHT22;17702;47.590;7.666;2024-01-15T12:20:00;5.30;97.60
31038;DHT22;17702;47.590;7.666;2024-01-15T12:22:26;5.30;97.70
31038;DHT22;17702;47.590;7.666;2024-01-15T12:24:53;5.30;98.10
31038;DHT22;17702;47.590;7.666;2024-01-15T12:27:20;5.20;98.40
31038;DHT22;17702;47.590;7.666;2024-01-15T12:29:46;5.20;98.10
31038;DHT22;17702;47.590;7.666;2024-01-15T12:32:12;5.10;98.40
31038;DHT22;17702;47.590;7.666;2024-01-15T12:34:38;5.10;98.00
31038;DHT22;17702;47.590;7.666;2024-01-15T12:37:04;5.10;98.70
31038;DHT22;17702;47.590;7.666;2024-01-15T12:39:29;5.20;98.50
31038;DHT22;17702;47.590;7.666;2024-01-15T12:41:55;5.20;98.30
31038;DHT22;17702;47.590;7.666;2024-01-15T12:44:21;5.20;98.40
31038;DHT22;17702;47.590;7.666;2024-01-15T12:46:47;5.10;98.20
31038;DHT22;17702;47.590;7.666;2024-01-15T12:49:13;5.10;98.60
31038;DHT22;17702;47.590;7.666;2024-01-15T12:51:39;5.20;98.20
31038;DHT22;17702;47.590;7.666;2024-01-15T12:54:04;5.20;98.50
31038;DHT22;17702;47.590;7.666;2024-01-15T12:56:30;5.30;98.40
31038;DHT22;17702;47.590;7.666;2024-01-15T12:58:56;5.30;98.10
31038;DHT22;17702;47.590;7.666;2024-01-15T13:01:22;5.30;98.20
31038;DHT22;17702;47.590;7.666;2024-01-15T13:03:47;5.20;98.10
31038;DHT22;17702;47.590;7.666;2024-01-15T13:06:13;5.20;97.70
31038;DHT22;17702;47.590;7.666;2024-01-15T13:08:38;5.20;98.30
31038;DHT22;17702;47.590;7.666;2024-01-15T13:11:04;5.20;97.80
31038;DHT22;17702;47.590;7.666;2024-01-15T13:13:30;5.20;98.00
31038;DHT22;17702;47.590;7.666;2024-01-15T13:15:57;5.20;98.20
31038;DHT22;17702;47.590;7.666;2024-01-15T13:18:23;5.20;97.80
31038;DHT22;17702;47.590;7.666;2024-01-15T13:20:49;5.30;97.90
31038;DHT22;17702;47.590;7.666;2024-01-15T13:23:15;5.20;98.00
31038;DHT22;17702;47.590;7.666;2024-01-15T13:25:40;5.20;97.20
31038;DHT22;17702;47.590;7.666;2024-01-15T13:28:06;5.20;98.10
31038;DHT22;17702;47.590;7.666;2024-01-15T13:30:32;5.20;98.10
31038;DHT22;17702;47.590;7.666;2024-01-15T13:32:57;5.20;97.20
31038;DHT22;17702;47.590;7.666;2024-01-15T13:35:29;5.20;97.70
31038;DHT22;17702;47.590;7.666;2024-01-15T13:37:54;5.20;97.30
31038;DHT22;17702;47.590;7.666;2024-01-15T13:40:20;5.20;97.70
31038;DHT22;17702;47.590;7.666;2024-01-15T13:42:46;5.20;97.50
31038;DHT22;17702;47.590;7.666;2024-01-15T13:45:12;5.20;98.00
31038;DHT22;17702;47.590;7.666;2024-01-15T13:47:40;5.20;97.80
31038;DHT22;17702;47.590;7.666;2024-01-15T13:50:07;5.20;98.40
31038;DHT22;17702;47.590;7.666;2024-01-15T13:52:33;5.30;98.30
31038;DHT22;17702;47.590;7.666;2024-01-15T13:54:59;5.30;97.80
31038;DHT22;17702;47.590;7.666;2024-01-15T13:57:24;5.30;97.30
31038;DHT22;17702;47.590;7.666;2024-01-15T13:59:50;5.30;97.50
31038;DHT22;17702;47.590;7.666;2024-01-15T14:02:15;5.20;97.70
31038;DHT22;17702;47.590;7.666;2024-01-15T14:04:41;5.20;97.50
31038;DHT22;17702;47.590;7.666;2024-01-15T14:07:07;5.20;97.40
31038;DHT22;17702;47.590;7.666;2024-01-15T14:09:33;5.20;97.60
31038;DHT22;17702;47.590;7.666;2024-01-15T14:11:59;5.00;97.40
31038;DHT22;17702;47.590;7.666;2024-01-15T14:14:25;5.00;97.80
31038;DHT22;17702;47.590;7.666;2024-01-15T14:16:50;5.00;97.70
31038;DHT22;17702;47.590;7.666;2024-01-15T14:19:16;4.90;97.80
31038;DHT22;17702;47.590;7.666;2024-01-15T14:21:41;4.90;98.10
31038;DHT22;17702;47.590;7.666;2024-01-15T14:24:07;5.00;98.10
31038;DHT22;17702;47.590;7.666;2024-01-15T14:26:33;5.00;97.80
31038;DHT22;17702;47.590;7.666;2024-01-15T14:28:58;5.10;98.00
31038;DHT22;17702;47.590;7.666;2024-01-15T14:31:24;5.10;97.70
31038;DHT22;17702;47.590;7.666;2024-01-15T14:33:52;5.10;97.50
31038;DHT22;17702;47.590;7.666;2024-01-15T14:36:17;5.20;97.80
31038;DHT22;17702;47.590;7.666;2024-01-15T14:38:43;5.20;97.80
31038;DHT22;17702;47.590;7.666;2024-01-15T14:41:09;5.20;97.10
31038;DHT22;17702;47.590;7.666;2024-01-15T14:43:34;5.10;97.60
31038;DHT22;17702;47.590;7.666;2024-01-15T14:46:00;5.00;97.20
31038;DHT22;17702;47.590;7.666;2024-01-15T14:48:25;5.00;97.50
31038;DHT22;17702;47.590;7.666;2024-01-15T14:50:51;5.00;97.00
31038;DHT22;17702;47.590;7.666;2024-01-15T14:53:16;4.90;97.20
31038;DHT22;17702;47.590;7.666;2024-01-15T14:55:42;4.90;97.40
31038;DHT22;17702;47.590;7.666;2024-01-15T14:58:08;5.00;97.30
31038;DHT22;17702;47.590;7.666;2024-01-15T15:00:34;5.00;97.40
31038;DHT22;17702;47.590;7.666;2024-01-15T15:02:59;5.00;97.10
31038;DHT22;17702;47.590;7.666;2024-01-15T15:05:25;5.00;97.10
31038;DHT22;17702;47.590;7.666;2024-01-15T15:07:51;5.00;97.50
31038;DHT22;17702;47.590;7.666;2024-01-15T15:10:17;5.00;97.20
31038;DHT22;17702;47.590;7.666;2024-01-15T15:12:42;5.00;97.80
31038;DHT22;17702;47.590;7.666;2024-01-15T15:15:09;5.00;97.70
31038;DHT22;17702;47.590;7.666;2024-01-15T15:17:37;5.00;97.80
31038;DHT22;17702;47.590;7.666;2024-01-15T15:20:04;5.10;97.40
31038;DHT22;17702;47.590;7.666;2024-01-15T15:22:29;5.00;97.60
31038;DHT22;17702;47.590;7.666;2024-01-15T15:24:55;5.00;97.50
31038;DHT22;17702;47.590;7.666;2024-01-15T15:27:21;5.00;97.30
31038;DHT22;17702;47.590;7.666;2024-01-15T15:29:46;4.90;97.70
31038;DHT22;17702;47.590;7.666;2024-01-15T15:32:13;4.90;98.40
31038;DHT22;17702;47.590;7.666;2024-01-15T15:34:39;4.90;97.80
31038;DHT22;17702;47.590;7.666;2024-01-15T15:37:05;4.80;98.60
31038;DHT22;17702;47.590;7.666;2024-01-15T15:39:30;4.80;98.80
31038;DHT22;17702;47.590;7.666;2024-01-15T15:41:56;4.80;98.20
31038;DHT22;17702;47.590;7.666;2024-01-15T15:44:22;4.70;98.40
31038;DHT22;17702;47.590;7.666;2024-01-15T15:46:47;4.60;98.70
31038;DHT22;17702;47.590;7.666;2024-01-15T15:49:13;4.70;99.00
31038;DHT22;17702;47.590;7.666;2024-01-15T15:51:40;4.60;98.70
31038;DHT22;17702;47.590;7.666;2024-01-15T15:54:06;4.60;98.70
31038;DHT22;17702;47.590;7.666;2024-01-15T15:56:32;4.60;99.00
31038;DHT22;17702;47.590;7.666;2024-01-15T15:59:04;4.60;99.60
31038;DHT22;17702;47.590;7.666;2024-01-15T16:01:31;4.60;99.80
31038;DHT22;17702;47.590;7.666;2024-01-15T16:03:56;4.50;99.60